createdAt,value
2019-03-03T00:01:15.972Z,27.27
2019-03-03T00:04:01.068Z,23.10
2019-03-03T00:06:32.844Z,25.27
2019-03-03T00:09:07.683Z,28.00
2019-03-03T00:11:45.069Z,26.30
2019-03-03T00:14:17.912Z,26.30
2019-03-03T00:16:54.530Z,24.37
2019-03-03T00:19:28.184Z,25.17
2019-03-03T00:22:04.657Z,25.80
2019-03-03T00:24:38.667Z,23.47
2019-03-03T00:27:13.774Z,23.40
2019-03-03T00:29:48.728Z,24.20
2019-03-03T00:32:26.879Z,23.13
2019-03-03T00:34:59.891Z,24.57
2019-03-03T00:37:52.991Z,23.87
2019-03-03T00:40:47.178Z,24.20
2019-03-03T00:43:37.054Z,22.27
2019-03-03T00:46:40.534Z,23.00
2019-03-03T00:49:29.061Z,24.40
2019-03-03T00:52:23.666Z,23.47
2019-03-03T00:55:15.465Z,24.23
2019-03-03T00:58:07.751Z,22.73
2019-03-03T01:01:07.500Z,22.80
2019-03-03T01:04:01.254Z,23.97
2019-03-03T01:07:02.708Z,27.03
2019-03-03T01:10:00.583Z,24.07
2019-03-03T01:12:53.322Z,24.87
2019-03-03T01:15:47.130Z,22.67
2019-03-03T01:18:54.692Z,25.50
2019-03-03T01:21:48.012Z,23.27
2019-03-03T01:24:43.657Z,24.77
2019-03-03T01:27:20.137Z,23.73
2019-03-03T01:29:57.281Z,22.10
2019-03-03T01:32:29.270Z,24.17
2019-03-03T01:35:04.608Z,22.93
2019-03-03T01:37:39.931Z,24.37
2019-03-03T01:40:16.984Z,23.10
2019-03-03T01:42:50.318Z,23.93
2019-03-03T01:45:23.711Z,23.87
2019-03-03T01:48:03.745Z,24.03
2019-03-03T01:50:38.657Z,22.97
2019-03-03T01:53:24.579Z,23.30
2019-03-03T01:56:13.098Z,24.00
2019-03-03T01:58:50.912Z,22.07
2019-03-03T02:01:28.505Z,22.20
2019-03-03T02:03:59.929Z,23.00
2019-03-03T02:06:34.702Z,21.03
2019-03-03T02:09:09.125Z,23.87
2019-03-03T02:11:45.773Z,23.47
2019-03-03T02:14:18.064Z,22.37
2019-03-03T02:16:52.038Z,21.73
2019-03-03T02:19:25.603Z,24.90
2019-03-03T02:21:59.270Z,22.27
2019-03-03T02:24:32.437Z,23.80
2019-03-03T02:27:06.389Z,22.30
2019-03-03T02:29:43.354Z,20.80
2019-03-03T02:32:22.706Z,21.50
2019-03-03T02:34:54.308Z,20.43
2019-03-03T02:37:27.583Z,21.77
2019-03-03T02:40:01.545Z,22.07
2019-03-03T02:42:34.106Z,23.17
2019-03-03T02:45:06.545Z,24.57
2019-03-03T02:47:44.785Z,23.10
2019-03-03T02:50:16.989Z,24.10
2019-03-03T02:53:06.881Z,21.57
2019-03-03T02:55:43.499Z,22.63
2019-03-03T02:58:18.282Z,24.43
2019-03-03T03:01:13.900Z,22.47
2019-03-03T03:03:54.506Z,23.17
2019-03-03T03:06:44.920Z,21.07
2019-03-03T03:09:42.462Z,23.10
2019-03-03T03:12:29.494Z,21.37
2019-03-03T03:15:27.763Z,23.13
2019-03-03T03:18:26.224Z,23.43
2019-03-03T03:21:20.641Z,23.47
2019-03-03T03:24:11.368Z,23.37
2019-03-03T03:27:07.107Z,25.07
2019-03-03T03:29:58.926Z,24.00
2019-03-03T03:32:38.649Z,23.13
2019-03-03T03:35:50.491Z,22.73
2019-03-03T03:38:30.158Z,22.33
2019-03-03T03:41:13.513Z,21.97
2019-03-03T03:44:06.712Z,23.17
2019-03-03T03:46:53.698Z,23.57
2019-03-03T03:49:44.600Z,22.17
2019-03-03T03:52:41.869Z,21.80
2019-03-03T03:55:50.342Z,23.10
2019-03-03T03:58:52.525Z,23.07
2019-03-03T04:01:45.092Z,22.17
2019-03-03T04:04:25.448Z,22.80
2019-03-03T04:07:20.921Z,21.43
2019-03-03T04:10:07.204Z,22.03
2019-03-03T04:13:08.911Z,22.17
2019-03-03T04:16:01.152Z,24.03
2019-03-03T04:18:54.274Z,20.17
2019-03-03T04:22:01.053Z,22.73
2019-03-03T04:24:47.641Z,23.40
2019-03-03T04:27:55.875Z,20.33
2019-03-03T04:30:49.536Z,22.33
2019-03-03T04:33:46.562Z,23.60
2019-03-03T04:36:46.725Z,25.33
2019-03-03T04:39:33.417Z,23.50
2019-03-03T04:42:25.609Z,21.93
2019-03-03T04:45:18.109Z,24.30
2019-03-03T04:48:09.201Z,22.57
2019-03-03T04:51:02.012Z,21.77
2019-03-03T04:53:45.625Z,24.33
2019-03-03T04:56:42.510Z,22.57
2019-03-03T04:59:33.566Z,20.97
2019-03-03T05:02:16.862Z,21.60
2019-03-03T05:05:06.168Z,23.43
2019-03-03T05:08:04.567Z,21.13
2019-03-03T05:11:01.559Z,22.17
2019-03-03T05:13:39.524Z,23.63
2019-03-03T05:16:39.564Z,21.87
2019-03-03T05:19:22.189Z,21.47
2019-03-03T05:21:53.914Z,21.07
2019-03-03T05:24:33.961Z,23.87
2019-03-03T05:27:02.289Z,23.07
2019-03-03T05:29:37.629Z,22.80
2019-03-03T05:32:10.630Z,20.20
2019-03-03T05:34:42.192Z,22.57
2019-03-03T05:37:23.243Z,23.03
2019-03-03T05:39:59.196Z,21.20
2019-03-03T05:42:39.740Z,21.27
2019-03-03T05:45:26.141Z,20.00
2019-03-03T05:48:08.045Z,22.20
2019-03-03T05:50:42.772Z,22.43
2019-03-03T05:53:20.784Z,22.33
2019-03-03T05:55:54.516Z,22.13
2019-03-03T05:58:26.582Z,23.30
2019-03-03T06:00:59.070Z,20.80
2019-03-03T06:03:30.884Z,19.83
2019-03-03T06:06:03.228Z,21.80
2019-03-03T06:08:38.459Z,21.20
2019-03-03T06:11:11.072Z,23.07
2019-03-03T06:13:47.706Z,21.17
2019-03-03T06:16:27.862Z,22.90
2019-03-03T06:18:59.961Z,22.97
2019-03-03T06:21:36.057Z,23.97
2019-03-03T06:24:10.927Z,23.13
2019-03-03T06:26:50.358Z,21.60
2019-03-03T06:29:23.126Z,20.73
2019-03-03T06:31:55.340Z,21.53
2019-03-03T06:34:30.191Z,20.67
2019-03-03T06:37:10.921Z,21.33
2019-03-03T06:39:56.764Z,22.67
2019-03-03T06:42:39.860Z,22.63
2019-03-03T06:45:13.144Z,22.60
2019-03-03T06:47:46.490Z,22.37
2019-03-03T06:50:20.142Z,22.33
2019-03-03T06:52:53.625Z,25.53
2019-03-03T06:55:28.454Z,22.77
2019-03-03T06:57:59.444Z,24.10
2019-03-03T07:00:32.621Z,21.23
2019-03-03T07:03:06.967Z,26.07
2019-03-03T07:05:40.414Z,22.40
2019-03-03T07:08:11.967Z,25.23
2019-03-03T07:11:03.148Z,23.57
2019-03-03T07:13:33.788Z,22.93
2019-03-03T07:16:07.530Z,23.67
2019-03-03T07:18:40.890Z,24.30
2019-03-03T07:21:13.774Z,24.53
2019-03-03T07:23:46.145Z,24.23
2019-03-03T07:26:18.966Z,23.10
2019-03-03T07:29:01.882Z,23.50
2019-03-03T07:31:36.841Z,23.53
2019-03-03T07:34:11.403Z,23.63
2019-03-03T07:36:51.859Z,23.20
2019-03-03T07:39:27.024Z,22.30
2019-03-03T07:42:05.551Z,23.33
2019-03-03T07:44:43.624Z,23.00
2019-03-03T07:47:20.343Z,24.23
2019-03-03T07:50:07.902Z,22.00
2019-03-03T07:52:57.348Z,25.00
2019-03-03T07:55:31.055Z,22.43
2019-03-03T07:58:01.637Z,24.40
2019-03-03T08:00:33.302Z,23.93
2019-03-03T08:03:06.727Z,23.37
2019-03-03T08:05:39.592Z,23.53
2019-03-03T08:08:10.616Z,24.33
2019-03-03T08:10:42.039Z,22.77
2019-03-03T08:13:16.596Z,25.47
2019-03-03T08:15:49.611Z,23.60
2019-03-03T08:18:25.141Z,22.57
2019-03-03T08:20:56.314Z,23.80
2019-03-03T08:23:30.491Z,23.70
2019-03-03T08:26:02.818Z,24.27
2019-03-03T08:28:34.859Z,21.93
2019-03-03T08:31:06.244Z,24.03
2019-03-03T08:33:41.263Z,23.43
2019-03-03T08:36:14.557Z,24.83
2019-03-03T08:38:50.518Z,22.80
2019-03-03T08:41:21.849Z,22.70
2019-03-03T08:44:13.974Z,21.37
2019-03-03T08:47:21.358Z,20.63
2019-03-03T08:50:00.845Z,20.07
2019-03-03T08:52:50.357Z,22.80
2019-03-03T08:55:55.535Z,20.10
2019-03-03T08:58:32.137Z,22.77
2019-03-03T09:01:20.907Z,22.70
2019-03-03T09:04:03.638Z,22.93
2019-03-03T09:06:43.133Z,32.63
2019-03-03T09:09:36.610Z,24.07
2019-03-03T09:12:22.240Z,22.03
2019-03-03T09:15:10.613Z,20.60
2019-03-03T09:18:11.166Z,21.20
2019-03-03T09:21:12.274Z,23.37
2019-03-03T09:24:07.416Z,24.10
2019-03-03T09:26:57.322Z,22.10
2019-03-03T09:29:41.717Z,22.40
2019-03-03T09:32:24.690Z,24.07
2019-03-03T09:35:17.265Z,26.67
2019-03-03T09:38:07.496Z,21.23
2019-03-03T09:40:57.288Z,22.60
2019-03-03T09:43:45.330Z,20.63
2019-03-03T09:46:39.363Z,21.90
2019-03-03T09:49:23.570Z,21.60
2019-03-03T09:52:12.921Z,21.00
2019-03-03T09:54:50.373Z,21.73
2019-03-03T09:57:37.814Z,21.57
2019-03-03T10:00:32.963Z,21.20
2019-03-03T10:03:34.080Z,20.73
2019-03-03T10:06:28.674Z,21.67
2019-03-03T10:09:17.989Z,22.80
2019-03-03T10:11:58.595Z,20.80
2019-03-03T10:14:53.618Z,20.70
2019-03-03T10:17:45.917Z,19.77
2019-03-03T10:20:40.118Z,21.93
2019-03-03T10:23:44.285Z,24.10
2019-03-03T10:26:34.919Z,19.43
2019-03-03T10:29:21.668Z,18.67
2019-03-03T10:32:22.727Z,17.70
2019-03-03T10:35:19.366Z,19.67
2019-03-03T10:37:59.955Z,20.17
2019-03-03T10:40:47.933Z,22.23
2019-03-03T10:43:30.843Z,19.27
2019-03-03T10:46:29.851Z,24.97
2019-03-03T10:49:24.897Z,20.13
2019-03-03T10:52:20.065Z,20.13
2019-03-03T10:55:13.338Z,20.43
2019-03-03T10:58:01.163Z,20.40
2019-03-03T11:00:48.871Z,18.87
2019-03-03T11:03:29.756Z,19.73
2019-03-03T11:06:24.709Z,20.83
2019-03-03T11:09:30.564Z,21.17
2019-03-03T11:12:13.310Z,23.17
2019-03-03T11:14:54.344Z,21.23
2019-03-03T11:17:49.554Z,19.63
2019-03-03T11:20:53.864Z,20.70
2019-03-03T11:23:32.859Z,22.97
2019-03-03T11:26:20.771Z,17.00
2019-03-03T11:29:28.423Z,18.17
2019-03-03T11:32:08.053Z,20.67
2019-03-03T11:34:54.929Z,22.30
2019-03-03T11:37:39.719Z,20.30
2019-03-03T11:40:29.714Z,26.10
2019-03-03T11:43:31.374Z,22.63
2019-03-03T11:46:27.170Z,23.13
2019-03-03T11:49:10.062Z,23.33
2019-03-03T11:51:59.436Z,23.13
2019-03-03T11:54:39.171Z,22.20
2019-03-03T11:57:23.922Z,22.77
2019-03-03T12:00:17.101Z,22.30
2019-03-03T12:03:03.299Z,28.10
2019-03-03T12:05:52.980Z,23.13
2019-03-03T12:08:42.391Z,35.00
2019-03-03T12:11:39.804Z,26.40
2019-03-03T12:14:46.247Z,34.43
2019-03-03T12:17:54.449Z,27.87
2019-03-03T12:20:37.570Z,34.90
2019-03-03T12:23:28.645Z,26.70
2019-03-03T12:26:14.309Z,32.27
2019-03-03T12:29:13.215Z,25.13
2019-03-03T12:32:08.785Z,23.57
2019-03-03T12:35:15.660Z,26.70
2019-03-03T12:38:00.589Z,23.93
2019-03-03T12:40:51.697Z,30.23
2019-03-03T12:43:55.577Z,24.70
2019-03-03T12:46:51.534Z,23.30
2019-03-03T12:49:51.038Z,28.67
2019-03-03T12:52:40.684Z,22.23
2019-03-03T12:55:20.545Z,26.57
2019-03-03T12:58:12.719Z,25.60
2019-03-03T13:01:03.981Z,27.13
2019-03-03T13:03:56.765Z,25.83
2019-03-03T13:06:55.169Z,24.00
2019-03-03T13:09:43.216Z,23.07
2019-03-03T13:12:28.220Z,21.87
2019-03-03T13:15:17.707Z,25.93
2019-03-03T13:18:00.810Z,24.20
2019-03-03T13:21:01.890Z,22.40
2019-03-03T13:23:48.504Z,18.63
2019-03-03T13:26:29.695Z,23.03
2019-03-03T13:29:27.458Z,23.90
2019-03-03T13:32:06.829Z,28.93
2019-03-03T13:34:58.213Z,23.30
2019-03-03T13:37:47.535Z,22.13
2019-03-03T13:40:39.024Z,21.97
2019-03-03T13:43:10.279Z,19.73
2019-03-03T13:45:41.996Z,18.63
2019-03-03T13:48:16.713Z,22.20
2019-03-03T13:50:52.322Z,20.17
2019-03-03T13:53:29.675Z,22.47
2019-03-03T13:56:05.485Z,25.80
2019-03-03T13:58:52.429Z,18.53
2019-03-03T14:01:30.001Z,20.27
2019-03-03T14:04:02.568Z,19.30
2019-03-03T14:06:35.450Z,23.67
2019-03-03T14:09:07.183Z,20.67
2019-03-03T14:11:40.889Z,24.10
2019-03-03T14:14:15.120Z,17.97
2019-03-03T14:16:48.538Z,21.73
2019-03-03T14:19:19.532Z,25.30
2019-03-03T14:21:50.166Z,20.97
2019-03-03T14:24:21.641Z,29.00
2019-03-03T14:26:52.054Z,25.00
2019-03-03T14:29:22.486Z,29.37
2019-03-03T14:31:54.122Z,22.03
2019-03-03T14:34:26.804Z,24.63
2019-03-03T14:36:57.945Z,22.97
2019-03-03T14:39:29.515Z,21.03
2019-03-03T14:42:00.834Z,22.10
2019-03-03T14:44:31.590Z,21.50
2019-03-03T14:47:02.200Z,17.93
2019-03-03T14:49:32.405Z,18.50
2019-03-03T14:52:02.490Z,16.63
2019-03-03T14:54:35.755Z,16.53
2019-03-03T14:57:06.846Z,19.63
2019-03-03T14:59:39.913Z,20.20
2019-03-03T15:02:11.712Z,16.63
2019-03-03T15:04:43.761Z,18.87
2019-03-03T15:07:18.399Z,20.10
2019-03-03T15:09:50.275Z,19.17
2019-03-03T15:12:20.964Z,21.10
2019-03-03T15:14:51.157Z,15.93
2019-03-03T15:17:21.406Z,20.53
2019-03-03T15:19:51.531Z,19.53
2019-03-03T15:22:21.566Z,17.23
2019-03-03T15:24:51.711Z,21.47
2019-03-03T15:27:21.795Z,15.53
2019-03-03T15:29:51.842Z,18.33
2019-03-03T15:32:22.024Z,15.77
2019-03-03T15:34:52.294Z,16.97
2019-03-03T15:37:23.615Z,19.40
2019-03-03T15:39:54.026Z,18.33
2019-03-03T15:42:24.030Z,21.83
2019-03-03T15:44:54.142Z,18.00
2019-03-03T15:47:25.276Z,16.57
2019-03-03T15:49:55.561Z,17.77
2019-03-03T15:52:25.740Z,17.70
2019-03-03T15:54:56.360Z,16.30
2019-03-03T15:57:26.654Z,21.20
2019-03-03T15:59:56.714Z,16.70
2019-03-03T16:02:27.754Z,17.53
2019-03-03T16:04:57.858Z,19.80
2019-03-03T16:07:28.495Z,21.53
2019-03-03T16:09:59.734Z,16.43
2019-03-03T16:12:30.655Z,18.40
2019-03-03T16:15:02.374Z,20.60
2019-03-03T16:17:33.708Z,20.23
2019-03-03T16:20:04.968Z,21.03
2019-03-03T16:22:36.578Z,14.10
2019-03-03T16:25:08.671Z,18.43
2019-03-03T16:27:39.558Z,21.33
2019-03-03T16:30:13.024Z,14.13
2019-03-03T16:32:45.381Z,16.37
2019-03-03T16:35:17.915Z,16.23
2019-03-03T16:37:51.376Z,19.00
2019-03-03T16:40:22.955Z,14.77
2019-03-03T16:42:57.421Z,13.43
2019-03-03T16:45:28.994Z,14.17
2019-03-03T16:48:00.755Z,13.23
2019-03-03T16:50:31.392Z,16.60
2019-03-03T16:53:02.251Z,18.50
2019-03-03T16:55:33.806Z,16.63
2019-03-03T16:58:04.556Z,15.50
2019-03-03T17:00:36.662Z,17.57
2019-03-03T17:03:08.451Z,16.10
2019-03-03T17:05:39.405Z,15.20
2019-03-03T17:08:11.779Z,15.57
2019-03-03T17:10:46.440Z,12.70
2019-03-03T17:13:17.274Z,29.17
2019-03-03T17:15:48.599Z,15.50
2019-03-03T17:18:20.491Z,15.33
2019-03-03T17:20:56.862Z,15.50
2019-03-03T17:23:29.729Z,17.00
2019-03-03T17:26:03.591Z,13.67
2019-03-03T17:28:37.174Z,15.23
2019-03-03T17:31:09.398Z,13.13
2019-03-03T17:33:41.530Z,17.90
2019-03-03T17:36:15.746Z,15.27
2019-03-03T17:38:47.421Z,12.60
2019-03-03T17:41:37.744Z,13.20
2019-03-03T17:44:08.480Z,13.73
2019-03-03T17:46:40.547Z,14.33
2019-03-03T17:49:13.741Z,15.43
2019-03-03T17:51:46.645Z,15.20
2019-03-03T17:54:18.255Z,17.57
2019-03-03T17:56:52.983Z,14.30
2019-03-03T17:59:33.470Z,17.77
2019-03-03T18:02:13.951Z,16.97
2019-03-03T18:04:50.679Z,14.17
2019-03-03T18:07:23.722Z,12.67
2019-03-03T18:09:55.746Z,15.27
2019-03-03T18:12:26.927Z,12.50
2019-03-03T18:14:57.769Z,13.50
2019-03-03T18:17:29.421Z,12.03
2019-03-03T18:20:00.735Z,12.63
2019-03-03T18:22:31.494Z,13.10
2019-03-03T18:25:02.510Z,11.00
2019-03-03T18:27:33.113Z,11.17
2019-03-03T18:30:03.795Z,13.57
2019-03-03T18:32:34.536Z,10.70
2019-03-03T18:35:04.977Z,13.63
2019-03-03T18:37:36.316Z,12.70
2019-03-03T18:40:07.075Z,13.40
2019-03-03T18:42:39.502Z,11.23
2019-03-03T18:45:11.639Z,11.53
2019-03-03T18:47:44.189Z,12.23
2019-03-03T18:50:19.656Z,9.67
2019-03-03T18:52:50.605Z,16.73
2019-03-03T18:55:21.279Z,12.60
2019-03-03T18:57:52.106Z,14.40
2019-03-03T19:00:23.802Z,10.87
2019-03-03T19:02:54.613Z,17.90
2019-03-03T19:05:26.347Z,12.20
2019-03-03T19:07:56.746Z,13.73
2019-03-03T19:10:27.343Z,10.13
2019-03-03T19:12:58.118Z,13.73
2019-03-03T19:15:33.324Z,13.03
2019-03-03T19:18:04.116Z,12.57
2019-03-03T19:20:34.758Z,13.73
2019-03-03T19:23:06.246Z,17.73
2019-03-03T19:25:36.628Z,14.40
2019-03-03T19:28:06.782Z,17.87
2019-03-03T19:30:37.794Z,14.00
2019-03-03T19:33:11.598Z,13.67
2019-03-03T19:35:42.034Z,12.77
2019-03-03T19:38:12.463Z,13.23
2019-03-03T19:40:42.774Z,10.57
2019-03-03T19:43:15.348Z,14.07
2019-03-03T19:45:45.731Z,12.60
2019-03-03T19:48:17.535Z,15.57
2019-03-03T19:50:48.356Z,13.70
2019-03-03T19:53:18.715Z,11.17
2019-03-03T19:55:48.782Z,13.80
2019-03-03T19:58:18.841Z,9.83
2019-03-03T20:00:49.076Z,10.83
2019-03-03T20:03:19.128Z,16.50
2019-03-03T20:05:49.212Z,10.97
2019-03-03T20:08:19.262Z,11.93
2019-03-03T20:10:49.353Z,11.67
2019-03-03T20:13:19.511Z,12.47
2019-03-03T20:15:50.251Z,12.60
2019-03-03T20:18:20.326Z,14.10
2019-03-03T20:20:50.336Z,12.80
2019-03-03T20:23:20.530Z,15.03
2019-03-03T20:25:50.855Z,18.17
2019-03-03T20:28:22.632Z,14.70
2019-03-03T20:30:53.867Z,15.90
2019-03-03T20:33:24.347Z,22.13
2019-03-03T20:35:54.649Z,16.87
2019-03-03T20:38:25.311Z,16.60
2019-03-03T20:40:55.668Z,17.53
2019-03-03T20:43:26.284Z,15.63
2019-03-03T20:45:56.672Z,13.53
2019-03-03T20:48:27.464Z,16.33
2019-03-03T20:50:57.803Z,23.40
2019-03-03T20:53:30.099Z,16.80
2019-03-03T20:56:00.404Z,27.47
2019-03-03T20:58:31.409Z,16.70
2019-03-03T21:01:01.931Z,15.83
2019-03-03T21:03:32.851Z,14.33
2019-03-03T21:06:03.719Z,16.17
2019-03-03T21:08:34.134Z,15.43
2019-03-03T21:11:05.578Z,15.40
2019-03-03T21:13:37.980Z,12.27
2019-03-03T21:16:10.323Z,13.50
2019-03-03T21:18:44.732Z,13.40
2019-03-03T21:21:19.246Z,14.07
2019-03-03T21:23:54.029Z,14.83
2019-03-03T21:26:25.607Z,10.20
2019-03-03T21:28:56.998Z,9.73
2019-03-03T21:31:27.494Z,12.83
2019-03-03T21:33:58.518Z,12.93
2019-03-03T21:36:29.488Z,14.50
2019-03-03T21:39:01.106Z,9.97
2019-03-03T21:41:33.256Z,10.00
2019-03-03T21:44:04.905Z,13.00
2019-03-03T21:46:35.737Z,10.30
2019-03-03T21:49:07.875Z,12.83
2019-03-03T21:51:40.544Z,10.37
2019-03-03T21:54:14.008Z,10.53
2019-03-03T21:56:46.991Z,12.20
2019-03-03T21:59:18.328Z,9.47
2019-03-03T22:01:49.407Z,12.13
2019-03-03T22:04:20.249Z,12.07
2019-03-03T22:06:51.135Z,11.37
2019-03-03T22:09:21.658Z,10.47
2019-03-03T22:11:52.111Z,10.07
2019-03-03T22:14:22.813Z,13.37
2019-03-03T22:16:53.569Z,9.63
2019-03-03T22:19:23.866Z,10.07
2019-03-03T22:21:54.089Z,11.13
2019-03-03T22:24:25.146Z,10.20
2019-03-03T22:26:55.505Z,9.73
2019-03-03T22:29:27.216Z,10.33
2019-03-03T22:31:57.925Z,9.20
2019-03-03T22:34:28.356Z,10.93
2019-03-03T22:36:59.101Z,10.93
2019-03-03T22:39:29.511Z,9.47
2019-03-03T22:42:00.346Z,8.87
2019-03-03T22:44:30.960Z,8.07
2019-03-03T22:47:02.077Z,8.87
2019-03-03T22:49:32.480Z,8.20
2019-03-03T22:52:02.686Z,8.00
2019-03-03T22:54:34.863Z,8.80
2019-03-03T22:57:05.074Z,8.37
2019-03-03T22:59:35.539Z,7.13
2019-03-03T23:02:07.513Z,9.47
2019-03-03T23:04:56.437Z,8.97
2019-03-03T23:07:42.013Z,8.50
2019-03-03T23:10:50.666Z,7.27
2019-03-03T23:13:59.522Z,7.30
2019-03-03T23:17:38.037Z,9.97
2019-03-03T23:20:49.865Z,6.50
2019-03-03T23:23:55.431Z,7.07
2019-03-03T23:26:28.157Z,8.03
2019-03-03T23:29:05.564Z,8.73
2019-03-03T23:31:41.539Z,7.00
2019-03-03T23:34:13.260Z,5.83
2019-03-03T23:36:46.302Z,8.37
2019-03-03T23:39:19.762Z,6.87
2019-03-03T23:41:50.456Z,9.33
2019-03-03T23:44:21.075Z,7.40
2019-03-03T23:46:51.478Z,6.57
2019-03-03T23:49:22.091Z,6.60
2019-03-03T23:51:52.835Z,6.07
2019-03-03T23:54:24.427Z,7.83
2019-03-03T23:56:54.876Z,5.83
2019-03-03T23:59:25.428Z,6.37
